Thursday, September 20, 2018, 6:39 PM EDT
Back to Local

KBDR, Sikorsky Memorial Airport

Location: Stratford, CT, United States Lat: 41.167
Local Time: 6:39 PM EDT (22:39 GMT) Lon: -73.133
Time Zone: US/Eastern Elev: 9 ft

Show me the last for .
Show Decoded

2018-09-20 17:52 METAR KBDR 202152Z 18003KT 10SM SCT050 21/15 A3023 RMK AO2 SLP236 T02110150 =
2018-09-20 16:52 METAR KBDR 202052Z 17006KT 10SM OVC050 22/15 A3022 RMK AO2 SLP232 T02170150
                 55006 =
2018-09-20 15:52 METAR KBDR 201952Z 15008KT 10SM BKN049 22/14 A3021 RMK AO2 SLP230 T02170144 =
2018-09-20 14:52 METAR KBDR 201852Z 16006KT 10SM SCT043 BKN050 21/14 A3022 RMK AO2 SLP231
                 T02110144 =
2018-09-20 13:52 METAR KBDR 201752Z 09008KT 7SM FEW002 22/14 A3023 RMK AO2 SLP238 T02170139 10217
                 20172 58004 =
2018-09-20 12:52 METAR KBDR 201652Z 09008KT 10SM BKN055 22/13 A3024 RMK AO2 SLP239 T02170133 =
2018-09-20 11:52 METAR KBDR 201552Z VRB04KT 10SM OVC055 21/13 A3025 RMK AO2 SLP243 T02060128 =
2018-09-20 10:52 METAR KBDR 201452Z 04005KT 10SM OVC055 19/13 A3025 RMK AO2 SLP242 T01940128
                 51016 =
2018-09-20 09:52 METAR KBDR 201352Z 06005KT 10SM OVC055 19/13 A3023 RMK AO2 SLP236 T01890128 =
2018-09-20 08:52 METAR KBDR 201252Z 02006KT 10SM OVC055 18/13 A3022 RMK AO2 SLP233 T01780128 =
2018-09-20 07:52 METAR KBDR 201152Z 02007KT 10SM OVC055 17/13 A3020 RMK AO2 SLP226 T01720128
                 10183 20172 53025 =
2018-09-20 06:52 METAR KBDR 201052Z 04008KT 10SM OVC055 17/12 A3016 RMK AO2 SLP213 T01720122 =
2018-09-20 05:52 METAR KBDR 200952Z AUTO 03008KT 10SM SCT039 OVC060 17/13 A3014 RMK AO2 SLP207
                 T01720128 =
2018-09-20 04:52 METAR KBDR 200852Z AUTO 05008KT 10SM OVC035 17/12 A3013 RMK AO2 SLP201 T01720122
                 52005 =
2018-09-20 03:52 METAR KBDR 200752Z AUTO 05008KT 10SM SCT029 OVC037 17/13 A3012 RMK AO2 SLP198
                 T01720128 =
2018-09-20 03:47 METAR KBDR 200747Z AUTO 05008KT 10SM SCT029 BKN037 OVC060 18/13 A3012 RMK AO2 =
2018-09-20 03:39 METAR KBDR 200739Z AUTO 04010KT 10SM BKN029 BKN036 OVC060 18/13 A3012 =
2018-09-20 03:24 METAR KBDR 200724Z AUTO 05010KT 10SM FEW027 SCT044 OVC060 18/13 A3011 RMK AO2
                 T01780128 =
2018-09-20 02:52 METAR KBDR 200652Z AUTO 05010KT 10SM OVC025 18/13 A3011 RMK AO2 SLP196 T01780128
                 =
2018-09-20 01:52 METAR KBDR 200552Z AUTO 06011KT 10SM BKN021 BKN034 OVC060 18/14 A3010 RMK AO2
                 SLP193 T01830139 10217 20183 51008 =
2018-09-20 01:25 METAR KBDR 200525Z AUTO 07011KT 10SM SCT019 OVC034 18/14 A3010 RMK AO2 T01830139
                 =
2018-09-20 00:52 METAR KBDR 200452Z AUTO 06010KT 10SM OVC018 18/14 A3010 RMK AO2 SLP191 T01830144
                 402560183 =
2018-09-19 23:52 METAR KBDR 200352Z AUTO 07012KT 10SM SCT018 OVC027 19/15 A3009 RMK AO2 SLP188
                 T01890150 =
2018-09-19 22:52 METAR KBDR 200252Z AUTO 06008KT 10SM FEW015 FEW021 OVC029 19/16 A3008 RMK AO2
                 SLP185 T01940156 51030 =
2018-09-19 21:52 METAR KBDR 200152Z 07011KT 10SM OVC028 20/16 A3006 RMK AO2 SLP177 T02000161 =
2018-09-19 21:28 METAR KBDR 200128Z 09012KT 10SM FEW017 BKN028 OVC048 20/16 A3004 RMK AO2
                 T02000161 =
2018-09-19 21:20 METAR KBDR 200120Z 09011KT 10SM SCT027 BKN035 BKN048 20/16 A3003 RMK AO2
                 T02000161 =
2018-09-19 20:52 METAR KBDR 200052Z 08011KT 10SM FEW018 OVC026 21/17 A3003 RMK AO2 SLP170
                 T02060172 =
2018-09-19 19:52 METAR KBDR 192352Z 10012KT 10SM BKN026 22/18 A2999 RMK AO2 SLP155 T02170178
                 10239 20217 51020 =
2018-09-19 18:52 METAR KBDR 192252Z 11009KT 10SM BKN026 22/18 A2997 RMK AO2 SLP149 T02220178 =
2018-09-19 18:41 METAR KBDR 192241Z 10010KT 10SM BKN025 22/18 A2997 RMK AO2 T02220183 =

Support USWX by starting your Amazon purchase here.